Main page
METAR-TAF:

METAR-TAF

Airports :

AAC Middle Wallop

Middle Wallop, England

latitude: 51-09N, longitude: 001-34W, elevation: 91 m

Current weather observation

The report was made 22 minutes ago, at 14:20 UTC
Wind 9 kt from the West/Southwest
Temperature 19°C
Humidity 49%
Pressure 1019 hPa
Visibility 10 km or more
Few clouds at a height of 4500 ft
Broken clouds at a height of 5000 ft

METAR: EGVP 071420Z 24009KT 9999 FEW045 BKN050 19/08 Q1019 NOSIG RMK BLU BLU

Time: 15:42 (14:42 UTC)

Forecast

The report was made 3 hours and 56 minutes ago, at 10:46 UTC
Forecast valid from 07 at 12 UTC to 07 at 21 UTC
Wind 8 kt from the West/Southwest
Visibility 10 km or more
Broken clouds at a height of 4500 ft
Probability 40%
from 07 at 19 UTC to 07 at 21 UTC
Broken clouds at a height of 2000 ft

TAF: EGVP 071046Z 0712/0721 24008KT 9999 BKN045 PROB40 0719/0721 BKN020

Weather observations and forecasts of more than 4000 airports (METAR and TAF reports).

The available stations are represented by yellow and red dots on the map.

Hover mouse over dot to see the name of the station.

Then click to see weather observations and forecasts.

To change the map : click on the green buttons with a black cross to zoom in, on the green button with a dash to zoom out, or on the green arrows for adjacent maps.


METAR-TAF: